createdAt,value
2017-06-03T00:00:35.956Z,5.75
2017-06-03T00:01:35.944Z,5.8
2017-06-03T00:02:35.940Z,5.73
2017-06-03T00:03:35.922Z,5.75
2017-06-03T00:04:35.916Z,5.8
2017-06-03T00:05:35.906Z,5.83
2017-06-03T00:06:35.893Z,5.81
2017-06-03T00:07:35.882Z,5.85
2017-06-03T00:08:35.881Z,5.85
2017-06-03T00:09:35.870Z,5.87
2017-06-03T00:10:35.855Z,5.92
2017-06-03T00:11:35.544Z,5.92
2017-06-03T00:12:35.834Z,5.92
2017-06-03T00:13:35.825Z,5.99
2017-06-03T00:14:35.812Z,5.85
2017-06-03T00:15:35.805Z,5.96
2017-06-03T00:16:35.803Z,5.87
2017-06-03T00:17:35.782Z,5.84
2017-06-03T00:18:35.775Z,5.81
2017-06-03T00:19:35.764Z,5.83
2017-06-03T00:20:35.755Z,5.77
2017-06-03T00:21:35.745Z,5.78
2017-06-03T00:22:35.731Z,5.81
2017-06-03T00:23:35.721Z,5.81
2017-06-03T00:24:35.711Z,5.75
2017-06-03T00:25:35.705Z,5.74
2017-06-03T00:26:35.692Z,5.73
2017-06-03T00:27:35.678Z,5.69
2017-06-03T00:28:35.371Z,5.69
2017-06-03T00:29:35.663Z,5.84
2017-06-03T00:30:35.653Z,5.78
2017-06-03T00:31:35.642Z,6.01
2017-06-03T00:32:35.633Z,6.06
2017-06-03T00:33:35.621Z,5.96
2017-06-03T00:34:35.609Z,5.93
2017-06-03T00:35:35.602Z,5.95
2017-06-03T00:36:35.591Z,5.95
2017-06-03T00:37:35.588Z,5.92
2017-06-03T00:38:35.574Z,5.92
2017-06-03T00:39:35.561Z,6.03
2017-06-03T00:40:35.566Z,6.16
2017-06-03T00:41:35.541Z,6.06
2017-06-03T00:42:35.533Z,5.99
2017-06-03T00:43:35.520Z,5.98
2017-06-03T00:44:35.513Z,5.77
2017-06-03T00:45:35.501Z,5.73
2017-06-03T00:46:35.497Z,5.63
2017-06-03T00:47:35.483Z,5.59
2017-06-03T00:48:35.477Z,5.58
2017-06-03T00:49:35.463Z,5.51
2017-06-03T00:50:35.155Z,5.49
2017-06-03T00:51:35.468Z,5.51
2017-06-03T00:52:34.834Z,5.47
2017-06-03T00:53:35.424Z,5.47
2017-06-03T00:54:35.413Z,5.44
2017-06-03T00:55:35.103Z,5.55
2017-06-03T00:56:35.093Z,5.62
2017-06-03T00:57:35.386Z,5.6
2017-06-03T00:58:35.374Z,5.62
2017-06-03T00:59:35.360Z,5.63
2017-06-03T01:00:35.353Z,5.6
2017-06-03T01:01:35.036Z,5.63
2017-06-03T01:02:35.047Z,5.59
2017-06-03T01:03:35.317Z,5.52
2017-06-03T01:04:35.304Z,5.58
2017-06-03T01:05:35.303Z,5.62
2017-06-03T01:06:35.291Z,5.59
2017-06-03T01:07:35.278Z,5.66
2017-06-03T01:08:34.961Z,5.62
2017-06-03T01:09:35.253Z,5.63
2017-06-03T01:10:35.247Z,5.59
2017-06-03T01:11:35.232Z,5.62
2017-06-03T01:12:35.257Z,5.7
2017-06-03T01:13:35.212Z,5.63
2017-06-03T01:14:35.200Z,5.7
2017-06-03T01:15:35.193Z,5.65
2017-06-03T01:16:35.178Z,5.63
2017-06-03T01:17:35.178Z,5.58
2017-06-03T01:18:35.158Z,5.51
2017-06-03T01:19:35.151Z,5.59
2017-06-03T01:20:35.137Z,5.56
2017-06-03T01:21:35.130Z,5.48
2017-06-03T01:22:35.118Z,5.55
2017-06-03T01:23:35.107Z,5.66
2017-06-03T01:24:35.096Z,5.7
2017-06-03T01:25:35.087Z,5.87
2017-06-03T01:26:35.093Z,5.95
2017-06-03T01:27:35.066Z,5.99
2017-06-03T01:28:35.053Z,5.98
2017-06-03T01:29:35.043Z,6.02
2017-06-03T01:30:35.031Z,6.01
2017-06-03T01:31:35.018Z,6.13
2017-06-03T01:32:35.009Z,6.13
2017-06-03T01:33:35.001Z,6.14
2017-06-03T01:34:34.994Z,6.13
2017-06-03T01:35:34.980Z,6.1
2017-06-03T01:36:34.966Z,6.11
2017-06-03T01:37:34.957Z,6.05
2017-06-03T01:38:34.948Z,6.14
2017-06-03T01:39:34.937Z,6.13
2017-06-03T01:40:34.925Z,6.01
2017-06-03T01:41:34.913Z,6.06
2017-06-03T01:42:34.925Z,5.96
2017-06-03T01:43:34.894Z,6.03
2017-06-03T01:44:34.879Z,6.01
2017-06-03T01:45:34.874Z,5.99
2017-06-03T01:46:34.863Z,5.98
2017-06-03T01:47:34.847Z,6.02
2017-06-03T01:48:34.840Z,6.03
2017-06-03T01:49:34.829Z,6.11
2017-06-03T01:50:34.820Z,5.98
2017-06-03T01:51:34.811Z,6.01
2017-06-03T01:52:34.799Z,6.16
2017-06-03T01:53:34.783Z,6.19
2017-06-03T01:54:34.770Z,6.21
2017-06-03T01:55:34.764Z,6.28
2017-06-03T01:56:34.753Z,6.36
2017-06-03T01:57:34.741Z,6.36
2017-06-03T01:58:34.723Z,6.19
2017-06-03T01:59:34.415Z,6.27
2017-06-03T02:00:34.705Z,6.21
2017-06-03T02:01:34.697Z,6.25
2017-06-03T02:02:34.686Z,6.3
2017-06-03T02:03:34.371Z,6.38
2017-06-03T02:04:34.354Z,6.32
2017-06-03T02:05:34.645Z,6.38
2017-06-03T02:06:34.633Z,6.43
2017-06-03T02:07:34.626Z,6.3
2017-06-03T02:08:34.609Z,6.36
2017-06-03T02:09:34.601Z,6.3
2017-06-03T02:10:34.590Z,6.27
2017-06-03T02:11:34.576Z,6.17
2017-06-03T02:12:34.567Z,6.25
2017-06-03T02:13:34.556Z,6.24
2017-06-03T02:14:34.240Z,6.27
2017-06-03T02:15:34.232Z,6.24
2017-06-03T02:16:34.224Z,6.27
2017-06-03T02:17:34.213Z,6.32
2017-06-03T02:18:34.500Z,6.3
2017-06-03T02:19:34.223Z,6.3
2017-06-03T02:20:34.174Z,6.33
2017-06-03T02:21:34.464Z,6.27
2017-06-03T02:22:34.479Z,6.35
2017-06-03T02:23:34.144Z,6.36
2017-06-03T02:24:34.132Z,6.38
2017-06-03T02:25:34.424Z,6.28
2017-06-03T02:26:34.108Z,6.32
2017-06-03T02:27:34.120Z,6.3
2017-06-03T02:28:34.086Z,6.27
2017-06-03T02:29:34.374Z,6.27
2017-06-03T02:30:34.362Z,6.28
2017-06-03T02:31:34.381Z,6.25
2017-06-03T02:32:34.349Z,6.16
2017-06-03T02:33:34.331Z,6.13
2017-06-03T02:34:34.321Z,6.14
2017-06-03T02:35:34.306Z,6.14
2017-06-03T02:36:33.994Z,6.17
2017-06-03T02:37:34.289Z,6.08
2017-06-03T02:38:34.281Z,6.08
2017-06-03T02:39:34.262Z,6.06
2017-06-03T02:40:34.251Z,6.03
2017-06-03T02:41:34.236Z,5.95
2017-06-03T02:42:34.222Z,6.02
2017-06-03T02:43:34.213Z,5.96
2017-06-03T02:44:34.199Z,5.99
2017-06-03T02:45:34.193Z,6.06
2017-06-03T02:46:34.180Z,6.13
2017-06-03T02:47:34.166Z,6.25
2017-06-03T02:48:33.854Z,6.24
2017-06-03T02:49:34.145Z,6.2
2017-06-03T02:50:34.136Z,6.19
2017-06-03T02:51:34.126Z,6.25
2017-06-03T02:52:34.115Z,6.14
2017-06-03T02:53:34.102Z,6.14
2017-06-03T02:54:34.087Z,5.98
2017-06-03T02:55:34.082Z,6.1
2017-06-03T02:56:34.066Z,6.05
2017-06-03T02:57:34.055Z,6.08
2017-06-03T02:58:34.044Z,6.06
2017-06-03T02:59:34.029Z,6.05
2017-06-03T03:00:34.025Z,6.05
2017-06-03T03:01:34.009Z,5.93
2017-06-03T03:02:33.997Z,5.98
2017-06-03T03:03:33.985Z,5.99
2017-06-03T03:04:33.976Z,6.01
2017-06-03T03:05:33.963Z,6.02
2017-06-03T03:06:33.951Z,6.05
2017-06-03T03:07:33.943Z,6.02
2017-06-03T03:08:33.928Z,6.02
2017-06-03T03:09:33.919Z,6.02
2017-06-03T03:10:33.907Z,6.03
2017-06-03T03:11:33.898Z,5.95
2017-06-03T03:12:33.585Z,5.95
2017-06-03T03:13:33.573Z,5.92
2017-06-03T03:14:33.560Z,5.95
2017-06-03T03:15:33.850Z,5.92
2017-06-03T03:16:33.841Z,5.9
2017-06-03T03:17:33.832Z,5.9
2017-06-03T03:18:33.816Z,5.81
2017-06-03T03:19:33.810Z,5.83
2017-06-03T03:20:33.794Z,5.78
2017-06-03T03:21:33.781Z,5.84
2017-06-03T03:22:33.774Z,5.87
2017-06-03T03:23:33.764Z,5.85
2017-06-03T03:24:33.751Z,5.93
2017-06-03T03:25:33.737Z,5.95
2017-06-03T03:26:33.730Z,5.78
2017-06-03T03:27:33.416Z,5.81
2017-06-03T03:28:33.705Z,5.69
2017-06-03T03:29:33.696Z,5.75
2017-06-03T03:30:33.682Z,5.78
2017-06-03T03:31:33.680Z,5.7
2017-06-03T03:32:33.664Z,5.77
2017-06-03T03:33:33.650Z,5.8
2017-06-03T03:34:33.635Z,5.81
2017-06-03T03:35:33.639Z,5.84
2017-06-03T03:36:33.617Z,5.93
2017-06-03T03:37:33.612Z,5.96
2017-06-03T03:38:33.594Z,5.95
2017-06-03T03:39:33.589Z,6.02
2017-06-03T03:40:33.572Z,6.01
2017-06-03T03:41:33.558Z,5.98
2017-06-03T03:42:33.547Z,5.98
2017-06-03T03:43:33.543Z,5.85
2017-06-03T03:44:33.530Z,5.99
2017-06-03T03:45:33.514Z,5.95
2017-06-03T03:46:33.509Z,5.93
2017-06-03T03:47:33.493Z,6.02
2017-06-03T03:48:33.481Z,5.96
2017-06-03T03:49:33.471Z,5.99
2017-06-03T03:50:33.463Z,6.03
2017-06-03T03:51:33.449Z,6.08
2017-06-03T03:52:33.453Z,6.06
2017-06-03T03:53:33.424Z,6.06
2017-06-03T03:54:33.117Z,6.13
2017-06-03T03:55:33.103Z,6.08
2017-06-03T03:56:33.423Z,6.01
2017-06-03T03:57:33.384Z,6.2
2017-06-03T03:58:33.380Z,6.2
2017-06-03T03:59:33.361Z,6.21
2017-06-03T04:00:33.348Z,6.02
2017-06-03T04:01:33.337Z,6.08
2017-06-03T04:02:33.328Z,6.14
2017-06-03T04:03:33.317Z,6.16
2017-06-03T04:04:33.311Z,6.19
2017-06-03T04:05:33.297Z,6.25
2017-06-03T04:06:33.281Z,6.25
2017-06-03T04:07:33.277Z,6.25
2017-06-03T04:08:33.286Z,6.38
2017-06-03T04:09:33.250Z,6.4
2017-06-03T04:10:33.238Z,6.38
2017-06-03T04:11:33.231Z,6.4
2017-06-03T04:12:33.214Z,6.42
2017-06-03T04:13:33.206Z,6.36
2017-06-03T04:14:33.191Z,6.3
2017-06-03T04:15:32.881Z,6.36
2017-06-03T04:16:33.174Z,6.36
2017-06-03T04:17:33.161Z,6.46
2017-06-03T04:18:32.545Z,6.43
2017-06-03T04:19:32.838Z,6.39
2017-06-03T04:20:32.824Z,6.4
2017-06-03T04:21:33.123Z,6.43
2017-06-03T04:22:33.108Z,6.51
2017-06-03T04:23:33.092Z,6.53
2017-06-03T04:24:33.083Z,6.42
2017-06-03T04:25:33.073Z,6.48
2017-06-03T04:26:33.063Z,6.43
2017-06-03T04:27:33.050Z,6.39
2017-06-03T04:28:33.069Z,6.39
2017-06-03T04:29:33.028Z,6.4
2017-06-03T04:30:33.011Z,6.39
2017-06-03T04:31:33.006Z,6.51
2017-06-03T04:32:32.691Z,6.35
2017-06-03T04:33:32.983Z,6.35
2017-06-03T04:34:32.975Z,6.36
2017-06-03T04:35:32.962Z,6.5
2017-06-03T04:36:32.945Z,6.73
2017-06-03T04:37:32.943Z,6.97
2017-06-03T04:38:32.928Z,7.15
2017-06-03T04:39:32.614Z,7.27
2017-06-03T04:40:32.905Z,7.44
2017-06-03T04:41:32.895Z,7.52
2017-06-03T04:42:32.906Z,7.63
2017-06-03T04:43:32.875Z,7.69
2017-06-03T04:44:32.862Z,7.74
2017-06-03T04:45:32.848Z,7.91
2017-06-03T04:46:32.835Z,8
2017-06-03T04:47:32.839Z,7.95
2017-06-03T04:48:32.819Z,8.14
2017-06-03T04:49:32.505Z,8.09
2017-06-03T04:50:32.497Z,8.07
2017-06-03T04:51:32.485Z,8.21
2017-06-03T04:52:32.775Z,7.99
2017-06-03T04:53:32.763Z,8.03
2017-06-03T04:54:32.760Z,8.14
2017-06-03T04:55:32.746Z,8.24
2017-06-03T04:56:32.433Z,8.25
2017-06-03T04:57:32.725Z,8.12
2017-06-03T04:58:32.719Z,8.18
2017-06-03T04:59:32.704Z,8.1
2017-06-03T05:00:32.695Z,8.17
2017-06-03T05:01:32.683Z,8.27
2017-06-03T05:02:32.671Z,8.37
2017-06-03T05:03:32.664Z,8.54
2017-06-03T05:04:32.648Z,8.42
2017-06-03T05:05:32.641Z,8.46
2017-06-03T05:06:32.632Z,8.32
2017-06-03T05:07:32.619Z,8.29
2017-06-03T05:08:32.618Z,8.1
2017-06-03T05:09:32.603Z,8.2
2017-06-03T05:10:32.593Z,8.36
2017-06-03T05:11:32.578Z,8.55
2017-06-03T05:12:32.574Z,8.67
2017-06-03T05:13:32.557Z,8.8
2017-06-03T05:14:32.246Z,9.04
2017-06-03T05:15:32.537Z,9.38
2017-06-03T05:16:32.555Z,9.65
2017-06-03T05:17:32.528Z,9.77
2017-06-03T05:18:32.508Z,9.65
2017-06-03T05:19:32.497Z,9.65
2017-06-03T05:20:32.189Z,9.62
2017-06-03T05:21:32.479Z,9.49
2017-06-03T05:22:32.475Z,9.06
2017-06-03T05:23:32.159Z,9.01
2017-06-03T05:24:32.453Z,9.12
2017-06-03T05:25:32.439Z,9.04
2017-06-03T05:26:32.430Z,9.22
2017-06-03T05:27:32.125Z,9.17
2017-06-03T05:28:32.412Z,9.1
2017-06-03T05:29:32.402Z,9.15
2017-06-03T05:30:32.398Z,9
2017-06-03T05:31:32.388Z,9.06
2017-06-03T05:32:32.073Z,9.08
2017-06-03T05:33:32.070Z,9.24
2017-06-03T05:34:32.360Z,9.48
2017-06-03T05:35:32.349Z,9.68
2017-06-03T05:36:32.033Z,9.62
2017-06-03T05:37:32.326Z,9.53
2017-06-03T05:38:32.321Z,9.62
2017-06-03T05:39:32.306Z,9.48
2017-06-03T05:40:32.298Z,9.59
2017-06-03T05:41:32.291Z,9.4
2017-06-03T05:42:32.282Z,9.26
2017-06-03T05:43:32.271Z,9.22
2017-06-03T05:44:32.264Z,9.26
2017-06-03T05:45:32.252Z,9.22
2017-06-03T05:46:32.246Z,9.3
2017-06-03T05:47:32.236Z,9.3
2017-06-03T05:48:32.222Z,9.32
2017-06-03T05:49:32.215Z,9.52
2017-06-03T05:50:32.206Z,9.65
2017-06-03T05:51:32.192Z,9.85
2017-06-03T05:52:32.190Z,9.98
2017-06-03T05:53:32.385Z,10.02
2017-06-03T05:54:32.371Z,10.2
2017-06-03T05:55:32.162Z,10.39
2017-06-03T05:56:32.148Z,10.55
2017-06-03T05:57:32.141Z,10.36
2017-06-03T05:58:32.338Z,10.49
2017-06-03T05:59:32.119Z,10.6
2017-06-03T06:00:32.115Z,10.65
2017-06-03T06:01:32.109Z,10.72
2017-06-03T06:02:32.098Z,10.84
2017-06-03T06:03:32.091Z,10.93
2017-06-03T06:04:32.285Z,10.93
2017-06-03T06:05:32.071Z,11.05
2017-06-03T06:06:32.067Z,10.68
2017-06-03T06:07:32.049Z,10.34
2017-06-03T06:08:32.043Z,10.47
2017-06-03T06:09:32.035Z,10.07
2017-06-03T06:10:32.026Z,10.07
2017-06-03T06:11:32.043Z,10.06
2017-06-03T06:12:32.015Z,10.1
2017-06-03T06:13:32.002Z,10.06
2017-06-03T06:14:31.990Z,10.18
2017-06-03T06:15:31.987Z,10.43
2017-06-03T06:16:31.975Z,10.68
2017-06-03T06:17:31.970Z,10.69
2017-06-03T06:18:31.960Z,10.18
2017-06-03T06:19:31.645Z,9.86
2017-06-03T06:20:31.940Z,9.78
2017-06-03T06:21:31.932Z,9.99
2017-06-03T06:22:31.925Z,9.99
2017-06-03T06:23:31.915Z,9.77
2017-06-03T06:24:31.904Z,9.62
2017-06-03T06:25:31.902Z,9.59
2017-06-03T06:26:31.891Z,9.65
2017-06-03T06:27:31.876Z,9.89
2017-06-03T06:28:31.568Z,9.71
2017-06-03T06:29:31.864Z,9.53
2017-06-03T06:30:31.854Z,9.37
2017-06-03T06:31:32.045Z,9.34
2017-06-03T06:32:32.037Z,9.32
2017-06-03T06:33:31.825Z,9.27
2017-06-03T06:34:31.815Z,9.15
2017-06-03T06:35:31.806Z,9.12
2017-06-03T06:36:32.009Z,9.01
2017-06-03T06:37:31.486Z,9.16
2017-06-03T06:38:31.482Z,9.03
2017-06-03T06:39:31.466Z,9.1
2017-06-03T06:40:31.761Z,9.12
2017-06-03T06:41:31.749Z,8.98
2017-06-03T06:42:31.441Z,8.97
2017-06-03T06:43:31.727Z,8.94
2017-06-03T06:44:31.420Z,8.97
2017-06-03T06:45:31.708Z,9.12
2017-06-03T06:46:31.711Z,9.26
2017-06-03T06:47:31.687Z,9.16
2017-06-03T06:48:31.379Z,9.32
2017-06-03T06:49:31.377Z,9.12
2017-06-03T06:50:31.661Z,8.85
2017-06-03T06:51:31.651Z,8.58
2017-06-03T06:52:31.646Z,8.27
2017-06-03T06:53:31.631Z,8.04
2017-06-03T06:54:31.630Z,8
2017-06-03T06:55:31.618Z,8.04
2017-06-03T06:56:31.604Z,8.04
2017-06-03T06:57:31.594Z,8.29
2017-06-03T06:58:31.585Z,8.49
2017-06-03T06:59:31.575Z,8.71
2017-06-03T07:00:31.565Z,8.89
2017-06-03T07:01:31.556Z,8.96
2017-06-03T07:02:31.552Z,9.03
2017-06-03T07:03:31.534Z,9.16
2017-06-03T07:04:31.524Z,9.06
2017-06-03T07:05:31.422Z,9.23
2017-06-03T07:06:31.504Z,9.2
2017-06-03T07:07:31.495Z,8.97
2017-06-03T07:08:31.487Z,9.08
2017-06-03T07:09:31.678Z,9.1
2017-06-03T07:10:31.467Z,9.31
2017-06-03T07:11:31.456Z,9.03
2017-06-03T07:12:31.455Z,9.23
2017-06-03T07:13:31.438Z,9.15
2017-06-03T07:14:31.626Z,9.13
2017-06-03T07:15:31.420Z,9.27
2017-06-03T07:16:31.407Z,9.27
2017-06-03T07:17:31.394Z,9.3
2017-06-03T07:18:31.387Z,9.35
2017-06-03T07:19:31.376Z,9.48
2017-06-03T07:20:31.367Z,9.77
2017-06-03T07:21:31.359Z,9.52
2017-06-03T07:22:31.343Z,9.65
2017-06-03T07:23:31.342Z,9.68
2017-06-03T07:24:31.329Z,9.5
2017-06-03T07:25:31.321Z,9.53
2017-06-03T07:26:31.308Z,9.78
2017-06-03T07:27:31.299Z,9.73
2017-06-03T07:28:31.291Z,9.49
2017-06-03T07:29:31.277Z,9.77
2017-06-03T07:30:30.967Z,9.96
2017-06-03T07:31:31.262Z,9.8
2017-06-03T07:32:31.250Z,9.73
2017-06-03T07:33:31.245Z,9.81
2017-06-03T07:34:31.230Z,9.4
2017-06-03T07:35:31.221Z,9.23
2017-06-03T07:36:30.911Z,9.24
2017-06-03T07:37:31.206Z,9.15
2017-06-03T07:38:31.196Z,8.96
2017-06-03T07:39:31.187Z,9.15
2017-06-03T07:40:30.873Z,9.19
2017-06-03T07:41:31.376Z,9.27
2017-06-03T07:42:31.158Z,9.19
2017-06-03T07:43:31.147Z,9.37
2017-06-03T07:44:31.170Z,9.5
2017-06-03T07:45:31.124Z,9.89
2017-06-03T07:46:31.322Z,10.09
2017-06-03T07:47:31.742Z,10.25
2017-06-03T07:48:31.102Z,10.47
2017-06-03T07:49:30.787Z,10.16
2017-06-03T07:50:30.780Z,10.29
2017-06-03T07:51:30.975Z,10.09
2017-06-03T07:52:31.063Z,10.35
2017-06-03T07:53:30.753Z,10.63
2017-06-03T07:54:30.740Z,10.84
2017-06-03T07:55:31.029Z,10.7
2017-06-03T07:56:31.040Z,11.21
2017-06-03T07:57:30.713Z,11.28
2017-06-03T07:58:31.008Z,11.66
2017-06-03T07:59:31.002Z,11.66
2017-06-03T08:00:30.686Z,11.41
2017-06-03T08:01:30.980Z,11.38
2017-06-03T08:02:30.976Z,11.78
2017-06-03T08:03:30.661Z,11.59
2017-06-03T08:04:30.957Z,11.53
2017-06-03T08:05:30.946Z,11.35
2017-06-03T08:06:30.639Z,11.64
2017-06-03T08:07:30.930Z,11.77
2017-06-03T08:08:30.921Z,12.05
2017-06-03T08:09:30.617Z,12.74
2017-06-03T08:10:30.912Z,13.21
2017-06-03T08:11:30.904Z,13.72
2017-06-03T08:12:30.594Z,13.87
2017-06-03T08:13:30.887Z,14.12
2017-06-03T08:14:30.881Z,14.41
2017-06-03T08:15:30.571Z,14.54
2017-06-03T08:16:30.864Z,15.15
2017-06-03T08:17:30.860Z,15.43
2017-06-03T08:18:30.850Z,15.92
2017-06-03T08:19:31.051Z,15.78
2017-06-03T08:20:30.844Z,15.98
2017-06-03T08:21:30.827Z,16.27
2017-06-03T08:22:30.828Z,16.72
2017-06-03T08:23:30.818Z,16.75
2017-06-03T08:24:30.816Z,16.87
2017-06-03T08:25:30.509Z,16.92
2017-06-03T08:26:30.500Z,16.95
2017-06-03T08:27:30.801Z,17.1
2017-06-03T08:28:30.795Z,17.35
2017-06-03T08:29:30.784Z,17.65
2017-06-03T08:30:30.482Z,17.68
2017-06-03T08:31:30.489Z,17.43
2017-06-03T08:32:30.469Z,17.03
2017-06-03T08:33:30.463Z,16.75
2017-06-03T08:34:30.764Z,16.73
2017-06-03T08:35:30.448Z,16.81
2017-06-03T08:36:30.449Z,16.72
2017-06-03T08:37:30.442Z,16.78
2017-06-03T08:38:30.738Z,16.81
2017-06-03T08:39:30.435Z,16.84
2017-06-03T08:40:30.728Z,17.1
2017-06-03T08:41:30.429Z,17.15
2017-06-03T08:42:30.726Z,17.33
2017-06-03T08:43:30.716Z,17.63
2017-06-03T08:44:30.115Z,17.74
2017-06-03T08:45:30.710Z,17.76
2017-06-03T08:46:30.711Z,17.53
2017-06-03T08:47:30.404Z,17.42
2017-06-03T08:48:30.701Z,17.39
2017-06-03T08:49:30.699Z,17.21
2017-06-03T08:50:30.388Z,17.66
2017-06-03T08:51:30.688Z,17.95
2017-06-03T08:52:30.683Z,18.1
2017-06-03T08:53:30.680Z,18.53
2017-06-03T08:54:30.678Z,18.82
2017-06-03T08:55:30.377Z,19.07
2017-06-03T08:56:30.673Z,19.17
2017-06-03T08:57:30.366Z,19.25
2017-06-03T08:58:30.663Z,19.15
2017-06-03T08:59:30.359Z,19.05
2017-06-03T09:00:30.654Z,18.79
2017-06-03T09:01:30.550Z,18.66
2017-06-03T09:02:30.649Z,18.51
2017-06-03T09:03:30.645Z,18.29
2017-06-03T09:04:30.341Z,18.23
2017-06-03T09:05:30.340Z,17.91
2017-06-03T09:06:30.638Z,17.77
2017-06-03T09:07:30.628Z,17.7
2017-06-03T09:08:30.627Z,17.62
2017-06-03T09:09:30.326Z,17.36
2017-06-03T09:10:30.621Z,17.33
2017-06-03T09:11:30.621Z,17.42
2017-06-03T09:12:30.616Z,17.28
2017-06-03T09:13:30.609Z,17.68
2017-06-03T09:14:30.609Z,18.09
2017-06-03T09:15:30.607Z,18.11
2017-06-03T09:16:30.600Z,17.65
2017-06-03T09:17:30.598Z,17.63
2017-06-03T09:18:30.591Z,17.92
2017-06-03T09:19:30.585Z,18.05
2017-06-03T09:20:30.585Z,18.14
2017-06-03T09:21:30.585Z,18.62
2017-06-03T09:22:30.577Z,18.59
2017-06-03T09:23:30.574Z,18.36
2017-06-03T09:24:30.570Z,18.23
2017-06-03T09:25:30.570Z,18.36
2017-06-03T09:26:30.561Z,18.69
2017-06-03T09:27:30.558Z,18.83
2017-06-03T09:28:30.558Z,19.05
2017-06-03T09:29:30.553Z,19.24
2017-06-03T09:30:30.549Z,19.64
2017-06-03T09:31:30.551Z,19.7
2017-06-03T09:32:30.541Z,19.4
2017-06-03T09:33:30.540Z,19.05
2017-06-03T09:34:30.537Z,18.35
2017-06-03T09:35:30.536Z,17.89
2017-06-03T09:36:30.528Z,17.43
2017-06-03T09:37:30.527Z,17.15
2017-06-03T09:38:30.523Z,16.54
2017-06-03T09:39:30.516Z,16.1
2017-06-03T09:40:30.519Z,16.01
2017-06-03T09:41:30.510Z,16.14
2017-06-03T09:42:30.513Z,15.85
2017-06-03T09:43:30.505Z,15.35
2017-06-03T09:44:30.503Z,15.18
2017-06-03T09:45:30.500Z,15.16
2017-06-03T09:46:30.492Z,15.31
2017-06-03T09:47:30.492Z,15.27
2017-06-03T09:48:30.483Z,15.71
2017-06-03T09:49:30.480Z,15.34
2017-06-03T09:50:30.477Z,15.67
2017-06-03T09:51:30.475Z,15.73
2017-06-03T09:52:30.467Z,15.76
2017-06-03T09:53:30.464Z,16.03
2017-06-03T09:54:30.459Z,16.54
2017-06-03T09:55:30.459Z,17.1
2017-06-03T09:56:30.452Z,17.02
2017-06-03T09:57:30.449Z,16.73
2017-06-03T09:58:30.445Z,16.98
2017-06-03T09:59:30.443Z,17.07
2017-06-03T10:00:30.435Z,17.54
2017-06-03T10:01:30.442Z,17.53
2017-06-03T10:02:30.431Z,17.87
2017-06-03T10:03:30.431Z,17.89
2017-06-03T10:04:30.426Z,18.31
2017-06-03T10:05:30.418Z,18.68
2017-06-03T10:06:30.415Z,18.56
2017-06-03T10:07:30.418Z,17.91
2017-06-03T10:08:30.406Z,17.65
2017-06-03T10:09:30.405Z,17.39
2017-06-03T10:10:30.402Z,16.77
2017-06-03T10:11:30.405Z,15.51
2017-06-03T10:12:30.394Z,14.66
2017-06-03T10:13:30.089Z,13.99
2017-06-03T10:14:30.388Z,13.81
2017-06-03T10:15:30.385Z,14.21
2017-06-03T10:16:30.379Z,15.16
2017-06-03T10:17:30.376Z,15.4
2017-06-03T10:18:30.378Z,15.05
2017-06-03T10:19:30.369Z,14.19
2017-06-03T10:20:30.064Z,13.81
2017-06-03T10:21:30.360Z,14.12
2017-06-03T10:22:30.374Z,14.44
2017-06-03T10:23:30.354Z,14.93
2017-06-03T10:24:30.351Z,15.27
2017-06-03T10:25:30.342Z,14.91
2017-06-03T10:26:30.342Z,15.34
2017-06-03T10:27:30.031Z,16.13
2017-06-03T10:28:30.333Z,15.93
2017-06-03T10:29:30.025Z,14.95
2017-06-03T10:30:30.319Z,14.56
2017-06-03T10:31:30.320Z,15.27
2017-06-03T10:32:30.313Z,15.78
2017-06-03T10:33:30.303Z,16.4
2017-06-03T10:34:30.304Z,16.44
2017-06-03T10:35:29.997Z,15.84
2017-06-03T10:36:29.999Z,15.99
2017-06-03T10:37:30.288Z,15.71
2017-06-03T10:38:30.288Z,15.74
2017-06-03T10:39:30.283Z,16.63
2017-06-03T10:40:30.278Z,17.73
2017-06-03T10:41:29.977Z,17.86
2017-06-03T10:42:30.273Z,17
2017-06-03T10:43:30.270Z,16.85
2017-06-03T10:44:30.260Z,17.32
2017-06-03T10:45:30.260Z,17.65
2017-06-03T10:46:30.255Z,17.7
2017-06-03T10:47:30.253Z,17.68
2017-06-03T10:48:30.249Z,17.28
2017-06-03T10:49:30.244Z,17.18
2017-06-03T10:50:30.243Z,16.48
2017-06-03T10:51:29.936Z,15.73
2017-06-03T10:52:30.240Z,15.27
2017-06-03T10:53:30.231Z,15.91
2017-06-03T10:54:30.226Z,15.96
2017-06-03T10:55:30.222Z,15.88
2017-06-03T10:56:30.219Z,15.15
2017-06-03T10:57:30.215Z,14.86
2017-06-03T10:58:30.212Z,15.09
2017-06-03T10:59:30.210Z,15.37
2017-06-03T11:00:30.202Z,15.66
2017-06-03T11:01:30.205Z,16.57
2017-06-03T11:02:30.191Z,17.35
2017-06-03T11:03:30.191Z,18.05
2017-06-03T11:04:29.884Z,18.11
2017-06-03T11:05:30.182Z,18.05
2017-06-03T11:06:30.182Z,17.87
2017-06-03T11:07:30.178Z,17.63
2017-06-03T11:08:30.176Z,17.65
2017-06-03T11:09:30.167Z,17.32
2017-06-03T11:10:30.171Z,17.17
2017-06-03T11:11:30.158Z,17.47
2017-06-03T11:12:30.157Z,17.33
2017-06-03T11:13:30.151Z,16.88
2017-06-03T11:14:30.149Z,16.44
2017-06-03T11:15:30.144Z,16.04
2017-06-03T11:16:30.146Z,15.4
2017-06-03T11:17:30.141Z,15.28
2017-06-03T11:18:30.137Z,15.22
2017-06-03T11:19:30.135Z,15.25
2017-06-03T11:20:30.128Z,15.15
2017-06-03T11:21:30.123Z,14.82
2017-06-03T11:22:30.119Z,15.03
2017-06-03T11:23:30.114Z,15.18
2017-06-03T11:24:30.114Z,15.05
2017-06-03T11:25:30.107Z,15.38
2017-06-03T11:26:30.104Z,15.3
2017-06-03T11:27:30.100Z,14.9
2017-06-03T11:28:30.099Z,14.85
2017-06-03T11:29:30.091Z,14.87
2017-06-03T11:30:30.090Z,15.01
2017-06-03T11:31:30.083Z,15.19
2017-06-03T11:32:30.083Z,15.09
2017-06-03T11:33:30.072Z,15.07
2017-06-03T11:34:30.070Z,14.66
2017-06-03T11:35:30.068Z,14.86
2017-06-03T11:36:30.068Z,15.03
2017-06-03T11:37:30.064Z,14.86
2017-06-03T11:38:30.076Z,14.6
2017-06-03T11:39:30.052Z,14.38
2017-06-03T11:40:30.050Z,14.57
2017-06-03T11:41:30.049Z,14.66
2017-06-03T11:42:30.039Z,14.42
2017-06-03T11:43:29.735Z,14.06
2017-06-03T11:44:30.031Z,13.94
2017-06-03T11:45:30.030Z,13.79
2017-06-03T11:46:30.024Z,13.88
2017-06-03T11:47:30.022Z,14.2
2017-06-03T11:48:29.713Z,14.2
2017-06-03T11:49:30.012Z,14.04
2017-06-03T11:50:30.006Z,14.06
2017-06-03T11:51:30.004Z,14.09
2017-06-03T11:52:30.001Z,14.23
2017-06-03T11:53:29.993Z,14.29
2017-06-03T11:54:29.985Z,13.88
2017-06-03T11:55:29.993Z,13.44
2017-06-03T11:56:29.983Z,13.27
2017-06-03T11:57:29.972Z,13.28
2017-06-03T11:58:29.967Z,13.43
2017-06-03T11:59:30.002Z,13.57
2017-06-03T12:00:29.960Z,13.94
2017-06-03T12:01:29.961Z,14.29
2017-06-03T12:02:29.956Z,14.52
2017-06-03T12:03:29.949Z,14.44
2017-06-03T12:04:29.938Z,14.21
2017-06-03T12:05:29.941Z,13.76
2017-06-03T12:06:29.932Z,13.38
2017-06-03T12:07:29.931Z,12.89
2017-06-03T12:08:29.919Z,12.61
2017-06-03T12:09:29.919Z,12.76
2017-06-03T12:10:29.915Z,12.74
2017-06-03T12:11:29.606Z,12.77
2017-06-03T12:12:29.905Z,12.95
2017-06-03T12:13:29.898Z,13.44
2017-06-03T12:14:29.904Z,14.53
2017-06-03T12:15:29.890Z,15.86
2017-06-03T12:16:29.887Z,16.98
2017-06-03T12:17:29.884Z,17.95
2017-06-03T12:18:29.878Z,18.54
2017-06-03T12:19:29.572Z,19.15
2017-06-03T12:20:29.874Z,19.31
2017-06-03T12:21:29.869Z,19.23
2017-06-03T12:22:29.864Z,17.86
2017-06-03T12:23:29.861Z,17.3
2017-06-03T12:24:29.860Z,16.65
2017-06-03T12:25:29.853Z,16.9
2017-06-03T12:26:29.854Z,17.39
2017-06-03T12:27:29.848Z,17.38
2017-06-03T12:28:29.846Z,17.27
2017-06-03T12:29:29.842Z,17.06
2017-06-03T12:30:29.841Z,16.59
2017-06-03T12:31:29.838Z,15.91
2017-06-03T12:32:29.836Z,15.86
2017-06-03T12:33:29.832Z,15.78
2017-06-03T12:34:29.860Z,15.64
2017-06-03T12:35:29.552Z,14.9
2017-06-03T12:36:29.825Z,14.16
2017-06-03T12:37:29.518Z,13.24
2017-06-03T12:38:29.820Z,12.7
2017-06-03T12:39:29.811Z,12.7
2017-06-03T12:40:29.508Z,11.85
2017-06-03T12:41:29.809Z,12.18
2017-06-03T12:42:29.500Z,12.52
2017-06-03T12:43:29.795Z,12.67
2017-06-03T12:44:29.793Z,12.85
2017-06-03T12:45:29.787Z,12.92
2017-06-03T12:46:29.484Z,13.17
2017-06-03T12:47:29.782Z,13.51
2017-06-03T12:48:29.474Z,13.39
2017-06-03T12:49:29.768Z,13.68
2017-06-03T12:50:29.763Z,14.64
2017-06-03T12:51:29.760Z,15.18
2017-06-03T12:52:29.756Z,16.07
2017-06-03T12:53:29.754Z,16.82
2017-06-03T12:54:29.442Z,18.01
2017-06-03T12:55:29.448Z,19.2
2017-06-03T12:56:29.738Z,19.28
2017-06-03T12:57:29.742Z,19.78
2017-06-03T12:58:29.425Z,20.23
2017-06-03T12:59:29.728Z,20.63
2017-06-03T13:00:29.421Z,20.82
2017-06-03T13:01:29.719Z,20.4
2017-06-03T13:02:29.426Z,19.55
2017-06-03T13:03:29.713Z,19.13
2017-06-03T13:04:29.737Z,17.89
2017-06-03T13:05:29.407Z,17.65
2017-06-03T13:06:29.710Z,16.98
2017-06-03T13:07:29.097Z,16.82
2017-06-03T13:08:29.695Z,16.78
2017-06-03T13:09:29.396Z,17.32